createdAt,value
2022-12-01T00:03:51.300Z,12.60
2022-12-01T00:09:16.649Z,13.10
2022-12-01T00:14:23.481Z,12.80
2022-12-01T00:19:46.605Z,13.10
2022-12-01T00:24:49.830Z,12.10
2022-12-01T00:29:52.662Z,13.40
2022-12-01T00:34:59.315Z,14.10
2022-12-01T00:40:04.103Z,14.30
2022-12-01T00:45:07.572Z,12.90
2022-12-01T00:50:11.018Z,13.40
2022-12-01T00:55:15.419Z,13.70
2022-12-01T01:00:19.999Z,14.10
2022-12-01T01:05:24.117Z,13.80
2022-12-01T01:10:27.182Z,14.30
2022-12-01T01:15:31.101Z,14.60
2022-12-01T01:20:34.150Z,15.20
2022-12-01T01:25:37.012Z,13.80
2022-12-01T01:30:40.745Z,13.60
2022-12-01T01:35:46.195Z,14.80
2022-12-01T01:40:49.637Z,14.80
2022-12-01T01:45:52.605Z,13.90
2022-12-01T01:50:55.525Z,13.20
2022-12-01T01:55:59.055Z,14.30
2022-12-01T02:01:03.482Z,15.30
2022-12-01T02:06:10.659Z,13.80
2022-12-01T02:11:22.135Z,14.10
2022-12-01T02:16:52.483Z,14.60
2022-12-01T02:22:33.951Z,14.70
2022-12-01T02:27:59.420Z,14.50
2022-12-01T02:34:15.180Z,14.50
2022-12-01T02:39:31.227Z,14.40
2022-12-01T02:44:40.334Z,14.30
2022-12-01T02:49:54.309Z,15.50
2022-12-01T02:54:57.353Z,15.10
2022-12-01T03:00:00.638Z,13.20
2022-12-01T03:05:12.769Z,14.50
2022-12-01T03:10:26.479Z,15.00
2022-12-01T03:16:12.775Z,14.40
2022-12-01T03:21:42.546Z,14.70
2022-12-01T03:26:51.908Z,14.90
2022-12-01T03:31:59.123Z,14.20
2022-12-01T03:37:07.497Z,14.10
2022-12-01T03:42:23.455Z,14.80
2022-12-01T03:47:33.111Z,15.20
2022-12-01T03:53:06.098Z,13.90
2022-12-01T03:58:39.635Z,14.90
2022-12-01T04:03:42.636Z,14.50
2022-12-01T04:08:45.457Z,15.20
2022-12-01T04:13:50.027Z,14.80
2022-12-01T04:18:53.077Z,14.90
2022-12-01T04:24:04.705Z,15.50
2022-12-01T04:29:10.377Z,16.80
2022-12-01T04:34:14.017Z,15.40
2022-12-01T04:39:19.839Z,16.30
2022-12-01T04:44:28.940Z,16.30
2022-12-01T04:49:37.465Z,17.40
2022-12-01T04:54:40.481Z,16.00
2022-12-01T04:59:43.340Z,16.20
2022-12-01T05:04:49.320Z,16.60
2022-12-01T05:09:52.466Z,17.90
2022-12-01T05:14:57.687Z,16.00
2022-12-01T05:20:22.378Z,16.80
2022-12-01T05:25:25.542Z,17.00
2022-12-01T05:30:51.044Z,16.90
2022-12-01T05:35:55.276Z,17.60
2022-12-01T05:40:58.611Z,16.60
2022-12-01T05:46:01.685Z,16.00
2022-12-01T05:51:15.424Z,15.20
2022-12-01T05:56:18.273Z,16.30
2022-12-01T06:01:23.050Z,16.40
2022-12-01T06:06:28.084Z,14.70
2022-12-01T06:11:31.130Z,15.20
2022-12-01T06:16:34.107Z,15.40
2022-12-01T06:21:37.379Z,14.90
2022-12-01T06:26:40.294Z,13.20
2022-12-01T06:31:44.036Z,13.50
2022-12-01T06:36:46.947Z,14.00
2022-12-01T06:41:52.616Z,13.10
2022-12-01T06:46:57.336Z,12.40
2022-12-01T06:52:01.668Z,13.90
2022-12-01T06:57:04.900Z,14.60
2022-12-01T07:02:11.813Z,13.30
2022-12-01T07:07:14.919Z,13.30
2022-12-01T07:12:19.218Z,13.10
2022-12-01T07:17:26.106Z,12.50
2022-12-01T07:22:32.635Z,13.20
2022-12-01T07:27:36.240Z,13.50
2022-12-01T07:32:40.419Z,12.80
2022-12-01T07:37:45.549Z,13.90
2022-12-01T07:42:48.575Z,14.40
2022-12-01T07:47:54.584Z,14.50
2022-12-01T07:52:57.411Z,13.00
2022-12-01T07:58:00.908Z,14.60
2022-12-01T08:03:06.059Z,16.70
2022-12-01T08:08:09.072Z,14.30
2022-12-01T08:13:17.124Z,16.60
2022-12-01T08:18:20.837Z,16.80
2022-12-01T08:23:23.751Z,17.00
2022-12-01T08:28:26.656Z,16.20
2022-12-01T08:33:29.433Z,15.20
2022-12-01T08:38:32.910Z,15.70
2022-12-01T08:49:04.758Z,15.80
2022-12-01T08:54:07.635Z,16.20
2022-12-01T08:59:10.499Z,16.40
2022-12-01T09:04:13.342Z,15.30
2022-12-01T09:09:23.146Z,14.10
2022-12-01T09:14:25.999Z,14.10
2022-12-01T09:19:28.979Z,15.10
2022-12-01T09:24:31.778Z,14.60
2022-12-01T09:29:35.082Z,14.10
2022-12-01T09:34:37.968Z,15.70
2022-12-01T09:39:40.753Z,17.30
2022-12-01T09:44:55.827Z,16.20
2022-12-01T09:50:13.865Z,17.60
2022-12-01T09:55:19.113Z,20.00
2022-12-01T10:00:31.510Z,21.80
2022-12-01T10:06:18.430Z,21.90
2022-12-01T10:11:36.921Z,22.20
2022-12-01T10:17:19.813Z,23.00
2022-12-01T10:22:50.727Z,22.40
2022-12-01T10:28:06.335Z,21.80
2022-12-01T10:33:27.204Z,22.40
2022-12-01T10:38:36.485Z,24.00
2022-12-01T10:43:45.571Z,26.50
2022-12-01T10:48:57.353Z,25.70
2022-12-01T10:54:08.087Z,24.80
2022-12-01T10:59:55.012Z,26.20
2022-12-01T11:05:25.192Z,27.90
2022-12-01T11:10:32.017Z,24.60
2022-12-01T11:15:40.378Z,26.40
2022-12-01T11:20:43.181Z,30.90
2022-12-01T11:26:15.166Z,30.30
2022-12-01T11:31:19.563Z,27.70
2022-12-01T11:36:43.001Z,29.80
2022-12-01T11:41:46.088Z,30.60
2022-12-01T11:52:27.652Z,29.00
2022-12-01T11:57:35.194Z,30.80
2022-12-01T12:02:54.022Z,30.40
2022-12-01T12:08:16.083Z,26.40
2022-12-01T12:13:59.849Z,28.20
2022-12-01T12:19:17.671Z,24.90
2022-12-01T12:24:28.510Z,25.20
2022-12-01T12:29:45.998Z,21.60
2022-12-01T12:35:12.425Z,21.70
2022-12-01T12:40:27.376Z,19.30
2022-12-01T12:46:05.119Z,13.70
2022-12-01T12:51:25.920Z,12.80
2022-12-01T12:56:43.489Z,12.10
2022-12-01T13:02:18.823Z,12.60
2022-12-01T13:07:49.140Z,10.50
2022-12-01T13:13:28.087Z,9.70
2022-12-01T13:19:19.530Z,9.70
2022-12-01T13:24:36.669Z,8.30
2022-12-01T13:29:51.129Z,8.00
2022-12-01T13:34:54.113Z,8.30
2022-12-01T13:40:07.525Z,8.50
2022-12-01T13:45:17.997Z,7.50
2022-12-01T13:50:55.705Z,7.70
2022-12-01T13:56:07.140Z,9.50
2022-12-01T14:01:22.529Z,8.40
2022-12-01T14:06:49.503Z,9.30
2022-12-01T14:12:03.604Z,9.30
2022-12-01T14:17:06.624Z,9.10
2022-12-01T14:22:45.819Z,8.70
2022-12-01T14:27:52.923Z,11.00
2022-12-01T14:33:45.910Z,10.00
2022-12-01T14:38:52.582Z,10.70
2022-12-01T14:44:05.785Z,10.50
2022-12-01T14:49:26.428Z,12.30
2022-12-01T14:54:35.088Z,10.90
2022-12-01T15:05:19.968Z,10.70
2022-12-01T15:10:35.786Z,11.60
2022-12-01T15:15:48.805Z,11.80
2022-12-01T15:20:55.543Z,11.70
2022-12-01T15:25:59.649Z,11.60
2022-12-01T15:31:11.078Z,12.00
2022-12-01T15:36:15.232Z,11.60
2022-12-01T15:41:30.414Z,15.50
2022-12-01T15:46:36.996Z,13.60
2022-12-01T15:51:40.267Z,16.60
2022-12-01T15:56:44.564Z,17.50
2022-12-01T16:01:48.080Z,18.10
2022-12-01T16:07:07.105Z,18.60
2022-12-01T16:12:24.966Z,19.50
2022-12-01T16:17:44.380Z,18.70
2022-12-01T16:22:50.277Z,18.30
2022-12-01T16:27:56.478Z,19.20
2022-12-01T16:33:15.295Z,19.20
2022-12-01T16:43:27.405Z,17.30
2022-12-01T16:48:31.351Z,19.20
2022-12-01T16:53:37.492Z,17.70
2022-12-01T16:58:40.452Z,18.20
2022-12-01T17:03:43.325Z,17.90
2022-12-01T17:08:46.865Z,18.20
2022-12-01T17:13:50.565Z,18.00
2022-12-01T17:18:53.454Z,18.60
2022-12-01T17:23:58.939Z,18.30
2022-12-01T17:29:01.809Z,18.80
2022-12-01T17:34:05.587Z,19.40
2022-12-01T17:39:08.998Z,18.30
2022-12-01T17:44:12.147Z,19.80
2022-12-01T17:49:15.619Z,20.10
2022-12-01T17:54:19.782Z,19.60
2022-12-01T17:59:23.332Z,20.60
2022-12-01T18:04:26.365Z,21.10
2022-12-01T18:09:29.433Z,20.30
2022-12-01T18:14:34.565Z,24.10
2022-12-01T18:19:37.636Z,22.80
2022-12-01T18:24:45.669Z,23.60
2022-12-01T18:29:48.575Z,21.50
2022-12-01T18:34:51.958Z,22.30
2022-12-01T18:39:56.541Z,22.20
2022-12-01T18:44:59.551Z,20.70
2022-12-01T18:50:11.254Z,19.70
2022-12-01T18:55:14.212Z,20.60
2022-12-01T19:00:17.583Z,19.20
2022-12-01T19:05:21.268Z,17.70
2022-12-01T19:10:24.108Z,17.20
2022-12-01T19:15:26.934Z,15.70
2022-12-01T19:20:29.867Z,14.30
2022-12-01T19:25:36.779Z,14.20
2022-12-01T19:30:44.004Z,14.10
2022-12-01T19:35:49.852Z,15.60
2022-12-01T19:40:52.778Z,17.90
2022-12-01T19:45:56.280Z,18.20
2022-12-01T19:50:59.433Z,16.30
2022-12-01T19:56:03.185Z,18.50
2022-12-01T20:01:08.757Z,18.10
2022-12-01T20:06:20.677Z,18.20
2022-12-01T20:11:24.379Z,19.20
2022-12-01T20:16:28.140Z,20.60
2022-12-01T20:21:39.303Z,21.40
2022-12-01T20:26:48.681Z,20.00
2022-12-01T20:31:52.897Z,20.20
2022-12-01T20:36:56.559Z,20.60
2022-12-01T20:41:59.796Z,20.00
2022-12-01T20:47:02.730Z,20.90
2022-12-01T20:52:05.626Z,18.60
2022-12-01T20:57:09.857Z,18.10
2022-12-01T21:02:13.894Z,19.90
2022-12-01T21:07:17.047Z,20.60
2022-12-01T21:12:38.814Z,19.70
2022-12-01T21:17:48.714Z,18.90
2022-12-01T21:22:51.788Z,19.00
2022-12-01T21:27:59.538Z,19.60
2022-12-01T21:33:33.338Z,19.90
2022-12-01T21:38:36.286Z,20.20
2022-12-01T21:43:39.215Z,20.60
2022-12-01T21:48:42.336Z,17.80
2022-12-01T21:53:45.764Z,16.90
2022-12-01T21:58:51.337Z,16.50
2022-12-01T22:04:02.659Z,16.00
2022-12-01T22:09:32.982Z,16.60
2022-12-01T22:14:36.235Z,17.10
2022-12-01T22:19:45.700Z,17.70
2022-12-01T22:24:51.788Z,17.50
2022-12-01T22:30:07.345Z,16.60
2022-12-01T22:35:22.618Z,17.40
2022-12-01T22:40:28.364Z,16.80
2022-12-01T22:45:31.197Z,17.30
2022-12-01T22:50:34.013Z,15.90
2022-12-01T22:55:37.005Z,16.30
2022-12-01T23:00:40.975Z,15.70
2022-12-01T23:05:44.297Z,15.00
2022-12-01T23:10:47.659Z,15.70
2022-12-01T23:15:53.812Z,15.30
2022-12-01T23:20:59.083Z,15.40
2022-12-01T23:26:03.952Z,16.60
2022-12-01T23:31:07.042Z,16.70
2022-12-01T23:36:21.853Z,13.60
2022-12-01T23:41:37.243Z,16.00
2022-12-01T23:46:41.700Z,15.50
2022-12-01T23:51:48.430Z,15.80
2022-12-01T23:56:57.110Z,14.90
